sensor_id;sensor_type;location;lat;lon;timestamp;P1;durP1;ratioP1;P2;durP2;ratioP2
42478;SDS011;28110;47.080;9.476;2022-11-03T00:01:08;4.53;;;2.10;;
42478;SDS011;28110;47.080;9.476;2022-11-03T00:03:33;5.70;;;2.05;;
42478;SDS011;28110;47.080;9.476;2022-11-03T00:05:59;4.90;;;2.03;;
42478;SDS011;28110;47.080;9.476;2022-11-03T00:11:08;5.40;;;2.13;;
42478;SDS011;28110;47.080;9.476;2022-11-03T00:13:35;3.60;;;1.83;;
42478;SDS011;28110;47.080;9.476;2022-11-03T00:16:02;4.47;;;1.73;;
42478;SDS011;28110;47.080;9.476;2022-11-03T00:18:28;6.40;;;1.83;;
42478;SDS011;28110;47.080;9.476;2022-11-03T00:20:54;4.90;;;1.80;;
42478;SDS011;28110;47.080;9.476;2022-11-03T00:23:21;4.32;;;2.05;;
42478;SDS011;28110;47.080;9.476;2022-11-03T00:25:48;4.23;;;2.03;;
42478;SDS011;28110;47.080;9.476;2022-11-03T00:28:13;3.92;;;1.80;;
42478;SDS011;28110;47.080;9.476;2022-11-03T00:30:39;8.93;;;2.10;;
42478;SDS011;28110;47.080;9.476;2022-11-03T00:33:04;12.57;;;2.30;;
42478;SDS011;28110;47.080;9.476;2022-11-03T00:35:30;4.90;;;2.08;;
42478;SDS011;28110;47.080;9.476;2022-11-03T00:37:56;3.30;;;1.70;;
42478;SDS011;28110;47.080;9.476;2022-11-03T00:40:21;6.85;;;1.90;;
42478;SDS011;28110;47.080;9.476;2022-11-03T00:42:47;5.30;;;1.90;;
42478;SDS011;28110;47.080;9.476;2022-11-03T00:45:12;6.30;;;2.00;;
42478;SDS011;28110;47.080;9.476;2022-11-03T00:47:38;5.75;;;2.10;;
42478;SDS011;28110;47.080;9.476;2022-11-03T00:50:23;6.03;;;2.00;;
42478;SDS011;28110;47.080;9.476;2022-11-03T00:52:49;6.20;;;2.05;;
42478;SDS011;28110;47.080;9.476;2022-11-03T00:55:14;5.77;;;1.93;;
42478;SDS011;28110;47.080;9.476;2022-11-03T00:57:40;3.65;;;1.67;;
42478;SDS011;28110;47.080;9.476;2022-11-03T01:00:06;4.65;;;1.63;;
42478;SDS011;28110;47.080;9.476;2022-11-03T01:02:32;5.57;;;2.00;;
42478;SDS011;28110;47.080;9.476;2022-11-03T01:04:57;6.23;;;2.13;;
42478;SDS011;28110;47.080;9.476;2022-11-03T01:07:58;2.50;;;1.50;;
42478;SDS011;28110;47.080;9.476;2022-11-03T01:10:24;5.37;;;1.80;;
42478;SDS011;28110;47.080;9.476;2022-11-03T01:12:49;5.07;;;1.93;;
42478;SDS011;28110;47.080;9.476;2022-11-03T01:15:15;5.70;;;2.00;;
42478;SDS011;28110;47.080;9.476;2022-11-03T01:17:40;4.83;;;1.77;;
42478;SDS011;28110;47.080;9.476;2022-11-03T01:20:06;5.53;;;1.67;;
42478;SDS011;28110;47.080;9.476;2022-11-03T01:22:32;5.95;;;2.00;;
42478;SDS011;28110;47.080;9.476;2022-11-03T01:24:57;8.87;;;2.27;;
42478;SDS011;28110;47.080;9.476;2022-11-03T01:27:23;5.97;;;1.80;;
42478;SDS011;28110;47.080;9.476;2022-11-03T01:29:49;4.87;;;2.17;;
42478;SDS011;28110;47.080;9.476;2022-11-03T01:32:14;4.43;;;1.97;;
42478;SDS011;28110;47.080;9.476;2022-11-03T01:34:40;5.88;;;1.98;;
42478;SDS011;28110;47.080;9.476;2022-11-03T01:37:05;4.03;;;1.57;;
42478;SDS011;28110;47.080;9.476;2022-11-03T01:39:31;5.95;;;1.90;;
42478;SDS011;28110;47.080;9.476;2022-11-03T01:41:57;4.07;;;1.90;;
42478;SDS011;28110;47.080;9.476;2022-11-03T01:44:27;3.13;;;1.85;;
42478;SDS011;28110;47.080;9.476;2022-11-03T01:47:18;7.03;;;1.92;;
42478;SDS011;28110;47.080;9.476;2022-11-03T01:50:04;5.20;;;2.00;;
42478;SDS011;28110;47.080;9.476;2022-11-03T01:52:42;5.97;;;1.83;;
42478;SDS011;28110;47.080;9.476;2022-11-03T01:55:23;5.57;;;1.85;;
42478;SDS011;28110;47.080;9.476;2022-11-03T01:57:53;5.22;;;2.08;;
42478;SDS011;28110;47.080;9.476;2022-11-03T02:00:23;4.88;;;1.83;;
42478;SDS011;28110;47.080;9.476;2022-11-03T02:02:49;3.03;;;1.47;;
42478;SDS011;28110;47.080;9.476;2022-11-03T02:05:15;4.30;;;1.60;;
42478;SDS011;28110;47.080;9.476;2022-11-03T02:07:45;4.63;;;1.58;;
42478;SDS011;28110;47.080;9.476;2022-11-03T02:10:14;2.80;;;1.63;;
42478;SDS011;28110;47.080;9.476;2022-11-03T02:12:40;3.87;;;1.53;;
42478;SDS011;28110;47.080;9.476;2022-11-03T02:15:08;5.68;;;1.70;;
42478;SDS011;28110;47.080;9.476;2022-11-03T02:17:38;4.13;;;1.52;;
42478;SDS011;28110;47.080;9.476;2022-11-03T02:20:09;4.53;;;1.95;;
42478;SDS011;28110;47.080;9.476;2022-11-03T02:28:15;6.15;;;1.90;;
42478;SDS011;28110;47.080;9.476;2022-11-03T02:30:58;5.50;;;1.92;;
42478;SDS011;28110;47.080;9.476;2022-11-03T02:33:32;5.22;;;1.58;;
42478;SDS011;28110;47.080;9.476;2022-11-03T02:38:37;5.63;;;1.55;;
42478;SDS011;28110;47.080;9.476;2022-11-03T02:41:11;4.63;;;1.77;;
42478;SDS011;28110;47.080;9.476;2022-11-03T02:43:38;5.25;;;1.92;;
42478;SDS011;28110;47.080;9.476;2022-11-03T02:46:05;4.35;;;1.63;;
42478;SDS011;28110;47.080;9.476;2022-11-03T02:48:31;3.45;;;1.48;;
42478;SDS011;28110;47.080;9.476;2022-11-03T02:50:57;4.03;;;1.60;;
42478;SDS011;28110;47.080;9.476;2022-11-03T02:53:23;4.10;;;1.60;;
42478;SDS011;28110;47.080;9.476;2022-11-03T03:03:24;8.07;;;2.00;;
42478;SDS011;28110;47.080;9.476;2022-11-03T03:05:54;3.47;;;1.40;;
42478;SDS011;28110;47.080;9.476;2022-11-03T03:08:24;3.30;;;1.60;;
42478;SDS011;28110;47.080;9.476;2022-11-03T03:10:50;4.10;;;1.30;;
42478;SDS011;28110;47.080;9.476;2022-11-03T03:13:18;3.58;;;1.75;;
42478;SDS011;28110;47.080;9.476;2022-11-03T03:16:03;3.47;;;1.50;;
42478;SDS011;28110;47.080;9.476;2022-11-03T03:18:43;5.75;;;1.60;;
42478;SDS011;28110;47.080;9.476;2022-11-03T03:21:11;4.03;;;1.67;;
42478;SDS011;28110;47.080;9.476;2022-11-03T03:23:42;4.15;;;1.63;;
42478;SDS011;28110;47.080;9.476;2022-11-03T03:26:17;5.07;;;1.42;;
42478;SDS011;28110;47.080;9.476;2022-11-03T03:29:08;2.73;;;1.60;;
42478;SDS011;28110;47.080;9.476;2022-11-03T03:31:40;3.63;;;1.70;;
42478;SDS011;28110;47.080;9.476;2022-11-03T03:34:10;4.57;;;1.70;;
42478;SDS011;28110;47.080;9.476;2022-11-03T03:36:37;4.70;;;1.40;;
42478;SDS011;28110;47.080;9.476;2022-11-03T03:39:05;2.92;;;1.67;;
42478;SDS011;28110;47.080;9.476;2022-11-03T03:41:34;1.83;;;1.10;;
42478;SDS011;28110;47.080;9.476;2022-11-03T03:44:01;4.57;;;1.50;;
42478;SDS011;28110;47.080;9.476;2022-11-03T03:46:33;12.10;;;2.15;;
42478;SDS011;28110;47.080;9.476;2022-11-03T03:49:05;7.57;;;1.50;;
42478;SDS011;28110;47.080;9.476;2022-11-03T03:51:31;11.43;;;1.73;;
42478;SDS011;28110;47.080;9.476;2022-11-03T03:53:58;5.90;;;1.40;;
42478;SDS011;28110;47.080;9.476;2022-11-03T03:56:42;11.70;;;2.05;;
42478;SDS011;28110;47.080;9.476;2022-11-03T03:59:15;5.05;;;1.38;;
42478;SDS011;28110;47.080;9.476;2022-11-03T04:01:40;5.53;;;1.50;;
42478;SDS011;28110;47.080;9.476;2022-11-03T04:04:06;6.70;;;1.63;;
42478;SDS011;28110;47.080;9.476;2022-11-03T04:06:31;5.70;;;1.50;;
42478;SDS011;28110;47.080;9.476;2022-11-03T04:08:57;5.30;;;1.50;;
42478;SDS011;28110;47.080;9.476;2022-11-03T04:11:22;3.43;;;1.60;;
42478;SDS011;28110;47.080;9.476;2022-11-03T04:14:07;4.15;;;1.30;;
42478;SDS011;28110;47.080;9.476;2022-11-03T04:16:52;2.75;;;1.00;;
42478;SDS011;28110;47.080;9.476;2022-11-03T04:19:36;5.30;;;2.10;;
42478;SDS011;28110;47.080;9.476;2022-11-03T04:22:20;3.20;;;1.20;;
42478;SDS011;28110;47.080;9.476;2022-11-03T04:24:48;7.53;;;1.38;;
42478;SDS011;28110;47.080;9.476;2022-11-03T04:27:28;6.55;;;1.50;;
42478;SDS011;28110;47.080;9.476;2022-11-03T04:29:58;2.83;;;1.20;;
42478;SDS011;28110;47.080;9.476;2022-11-03T04:32:33;4.63;;;1.30;;
42478;SDS011;28110;47.080;9.476;2022-11-03T04:35:00;4.30;;;1.40;;
42478;SDS011;28110;47.080;9.476;2022-11-03T04:37:26;3.22;;;1.00;;
42478;SDS011;28110;47.080;9.476;2022-11-03T04:39:57;4.80;;;1.20;;
42478;SDS011;28110;47.080;9.476;2022-11-03T04:42:26;2.90;;;1.13;;
42478;SDS011;28110;47.080;9.476;2022-11-03T04:44:55;5.05;;;1.63;;
42478;SDS011;28110;47.080;9.476;2022-11-03T04:47:24;1.95;;;1.25;;
42478;SDS011;28110;47.080;9.476;2022-11-03T04:49:50;2.10;;;1.00;;
42478;SDS011;28110;47.080;9.476;2022-11-03T04:52:16;5.13;;;1.40;;
42478;SDS011;28110;47.080;9.476;2022-11-03T04:54:46;2.75;;;1.13;;
42478;SDS011;28110;47.080;9.476;2022-11-03T04:57:14;2.47;;;1.20;;
42478;SDS011;28110;47.080;9.476;2022-11-03T04:59:41;3.42;;;0.98;;
42478;SDS011;28110;47.080;9.476;2022-11-03T05:02:10;3.00;;;1.10;;
42478;SDS011;28110;47.080;9.476;2022-11-03T05:04:39;2.03;;;1.30;;
42478;SDS011;28110;47.080;9.476;2022-11-03T05:07:22;2.35;;;1.20;;
42478;SDS011;28110;47.080;9.476;2022-11-03T05:09:56;2.83;;;1.35;;
42478;SDS011;28110;47.080;9.476;2022-11-03T05:12:22;3.38;;;1.15;;
42478;SDS011;28110;47.080;9.476;2022-11-03T05:14:48;2.22;;;1.10;;
42478;SDS011;28110;47.080;9.476;2022-11-03T05:17:20;5.07;;;1.10;;
42478;SDS011;28110;47.080;9.476;2022-11-03T05:19:48;6.25;;;1.20;;
42478;SDS011;28110;47.080;9.476;2022-11-03T05:22:19;3.03;;;1.20;;
42478;SDS011;28110;47.080;9.476;2022-11-03T05:24:46;5.70;;;1.30;;
42478;SDS011;28110;47.080;9.476;2022-11-03T05:27:15;2.77;;;1.10;;
42478;SDS011;28110;47.080;9.476;2022-11-03T05:29:44;3.40;;;1.00;;
42478;SDS011;28110;47.080;9.476;2022-11-03T05:32:12;5.20;;;1.08;;
42478;SDS011;28110;47.080;9.476;2022-11-03T05:34:45;1.85;;;0.90;;
42478;SDS011;28110;47.080;9.476;2022-11-03T05:39:44;3.33;;;0.80;;
42478;SDS011;28110;47.080;9.476;2022-11-03T05:44:46;2.40;;;1.02;;
42478;SDS011;28110;47.080;9.476;2022-11-03T05:47:13;4.82;;;1.13;;
42478;SDS011;28110;47.080;9.476;2022-11-03T05:49:45;4.30;;;1.30;;
42478;SDS011;28110;47.080;9.476;2022-11-03T05:52:14;7.60;;;1.23;;
42478;SDS011;28110;47.080;9.476;2022-11-03T05:54:44;4.00;;;1.10;;
42478;SDS011;28110;47.080;9.476;2022-11-03T05:57:10;3.20;;;1.00;;
42478;SDS011;28110;47.080;9.476;2022-11-03T05:59:38;5.30;;;1.20;;
42478;SDS011;28110;47.080;9.476;2022-11-03T06:02:04;2.00;;;1.00;;
42478;SDS011;28110;47.080;9.476;2022-11-03T06:04:59;4.82;;;1.35;;
42478;SDS011;28110;47.080;9.476;2022-11-03T06:07:26;2.95;;;1.30;;
42478;SDS011;28110;47.080;9.476;2022-11-03T06:09:55;3.92;;;0.93;;
42478;SDS011;28110;47.080;9.476;2022-11-03T06:12:22;1.95;;;1.30;;
42478;SDS011;28110;47.080;9.476;2022-11-03T06:14:49;2.28;;;0.85;;
42478;SDS011;28110;47.080;9.476;2022-11-03T06:17:25;3.60;;;1.23;;
42478;SDS011;28110;47.080;9.476;2022-11-03T06:19:53;2.78;;;0.70;;
42478;SDS011;28110;47.080;9.476;2022-11-03T06:22:25;2.38;;;1.05;;
42478;SDS011;28110;47.080;9.476;2022-11-03T06:28:07;3.42;;;0.90;;
42478;SDS011;28110;47.080;9.476;2022-11-03T06:30:41;3.00;;;0.93;;
42478;SDS011;28110;47.080;9.476;2022-11-03T06:33:23;1.30;;;0.88;;
42478;SDS011;28110;47.080;9.476;2022-11-03T06:35:53;2.25;;;0.82;;
42478;SDS011;28110;47.080;9.476;2022-11-03T06:38:24;2.95;;;1.15;;
42478;SDS011;28110;47.080;9.476;2022-11-03T06:40:53;3.13;;;0.90;;
42478;SDS011;28110;47.080;9.476;2022-11-03T06:43:21;3.10;;;1.10;;
42478;SDS011;28110;47.080;9.476;2022-11-03T06:45:53;3.38;;;1.00;;
42478;SDS011;28110;47.080;9.476;2022-11-03T06:48:29;4.18;;;1.02;;
42478;SDS011;28110;47.080;9.476;2022-11-03T06:50:58;3.83;;;0.98;;
42478;SDS011;28110;47.080;9.476;2022-11-03T06:53:25;3.38;;;1.33;;
42478;SDS011;28110;47.080;9.476;2022-11-03T06:55:53;5.77;;;1.03;;
42478;SDS011;28110;47.080;9.476;2022-11-03T06:58:35;1.98;;;1.05;;
42478;SDS011;28110;47.080;9.476;2022-11-03T07:01:03;4.05;;;0.98;;
42478;SDS011;28110;47.080;9.476;2022-11-03T07:03:43;2.58;;;0.80;;
42478;SDS011;28110;47.080;9.476;2022-11-03T07:06:12;4.20;;;1.40;;
42478;SDS011;28110;47.080;9.476;2022-11-03T07:08:45;4.13;;;1.10;;
42478;SDS011;28110;47.080;9.476;2022-11-03T07:11:21;3.50;;;1.00;;
42478;SDS011;28110;47.080;9.476;2022-11-03T07:13:52;4.10;;;0.95;;
42478;SDS011;28110;47.080;9.476;2022-11-03T07:16:31;3.50;;;1.40;;
42478;SDS011;28110;47.080;9.476;2022-11-03T07:19:04;8.13;;;1.42;;
42478;SDS011;28110;47.080;9.476;2022-11-03T07:21:40;3.50;;;0.87;;
42478;SDS011;28110;47.080;9.476;2022-11-03T07:24:15;3.90;;;1.38;;
42478;SDS011;28110;47.080;9.476;2022-11-03T07:26:55;2.30;;;1.05;;
42478;SDS011;28110;47.080;9.476;2022-11-03T07:29:26;4.93;;;1.23;;
42478;SDS011;28110;47.080;9.476;2022-11-03T07:31:56;1.80;;;1.15;;
42478;SDS011;28110;47.080;9.476;2022-11-03T07:34:24;2.63;;;0.90;;
42478;SDS011;28110;47.080;9.476;2022-11-03T07:36:55;5.00;;;1.30;;
42478;SDS011;28110;47.080;9.476;2022-11-03T07:39:22;6.20;;;1.30;;
42478;SDS011;28110;47.080;9.476;2022-11-03T07:41:57;1.95;;;0.80;;
42478;SDS011;28110;47.080;9.476;2022-11-03T07:44:22;7.70;;;1.00;;
42478;SDS011;28110;47.080;9.476;2022-11-03T07:46:48;4.40;;;0.97;;
42478;SDS011;28110;47.080;9.476;2022-11-03T07:49:25;4.55;;;1.33;;
42478;SDS011;28110;47.080;9.476;2022-11-03T07:51:52;4.47;;;0.90;;
42478;SDS011;28110;47.080;9.476;2022-11-03T07:54:23;3.58;;;1.10;;
42478;SDS011;28110;47.080;9.476;2022-11-03T07:56:54;2.15;;;0.95;;
42478;SDS011;28110;47.080;9.476;2022-11-03T08:02:29;2.08;;;1.00;;
42478;SDS011;28110;47.080;9.476;2022-11-03T08:04:57;3.00;;;0.98;;
42478;SDS011;28110;47.080;9.476;2022-11-03T08:07:23;2.13;;;0.90;;
42478;SDS011;28110;47.080;9.476;2022-11-03T08:09:49;2.00;;;0.90;;
42478;SDS011;28110;47.080;9.476;2022-11-03T08:12:15;4.45;;;1.00;;
42478;SDS011;28110;47.080;9.476;2022-11-03T08:14:40;3.60;;;1.00;;
42478;SDS011;28110;47.080;9.476;2022-11-03T08:17:06;2.38;;;1.08;;
42478;SDS011;28110;47.080;9.476;2022-11-03T08:19:31;2.93;;;1.00;;
42478;SDS011;28110;47.080;9.476;2022-11-03T08:21:57;3.50;;;1.50;;
42478;SDS011;28110;47.080;9.476;2022-11-03T08:24:22;2.25;;;1.20;;
42478;SDS011;28110;47.080;9.476;2022-11-03T08:26:48;3.17;;;1.10;;
42478;SDS011;28110;47.080;9.476;2022-11-03T08:29:14;6.83;;;1.00;;
42478;SDS011;28110;47.080;9.476;2022-11-03T08:31:41;1.70;;;0.90;;
42478;SDS011;28110;47.080;9.476;2022-11-03T08:34:07;3.45;;;1.00;;
42478;SDS011;28110;47.080;9.476;2022-11-03T08:36:33;5.27;;;1.00;;
42478;SDS011;28110;47.080;9.476;2022-11-03T08:38:59;2.95;;;0.93;;
42478;SDS011;28110;47.080;9.476;2022-11-03T08:41:24;2.53;;;1.13;;
42478;SDS011;28110;47.080;9.476;2022-11-03T08:43:50;2.72;;;1.00;;
42478;SDS011;28110;47.080;9.476;2022-11-03T08:46:15;3.90;;;0.93;;
42478;SDS011;28110;47.080;9.476;2022-11-03T08:48:41;3.07;;;0.90;;
42478;SDS011;28110;47.080;9.476;2022-11-03T08:51:07;2.75;;;0.90;;
42478;SDS011;28110;47.080;9.476;2022-11-03T08:53:34;2.15;;;0.90;;
42478;SDS011;28110;47.080;9.476;2022-11-03T08:56:00;2.20;;;0.90;;
42478;SDS011;28110;47.080;9.476;2022-11-03T08:58:25;4.45;;;0.93;;
42478;SDS011;28110;47.080;9.476;2022-11-03T09:00:51;1.70;;;0.97;;
42478;SDS011;28110;47.080;9.476;2022-11-03T09:03:16;4.13;;;1.00;;
42478;SDS011;28110;47.080;9.476;2022-11-03T09:05:42;3.70;;;0.83;;
42478;SDS011;28110;47.080;9.476;2022-11-03T09:08:08;1.87;;;1.20;;
42478;SDS011;28110;47.080;9.476;2022-11-03T09:10:33;2.83;;;1.13;;
42478;SDS011;28110;47.080;9.476;2022-11-03T09:12:59;5.23;;;1.80;;
42478;SDS011;28110;47.080;9.476;2022-11-03T09:15:25;4.95;;;2.28;;
42478;SDS011;28110;47.080;9.476;2022-11-03T09:17:50;5.67;;;2.93;;
42478;SDS011;28110;47.080;9.476;2022-11-03T09:20:16;5.27;;;1.50;;
42478;SDS011;28110;47.080;9.476;2022-11-03T09:22:41;11.43;;;2.90;;
42478;SDS011;28110;47.080;9.476;2022-11-03T09:25:07;3.43;;;1.00;;
42478;SDS011;28110;47.080;9.476;2022-11-03T09:27:33;3.60;;;2.45;;
42478;SDS011;28110;47.080;9.476;2022-11-03T09:29:58;6.87;;;2.90;;
42478;SDS011;28110;47.080;9.476;2022-11-03T09:32:24;9.52;;;3.50;;
42478;SDS011;28110;47.080;9.476;2022-11-03T09:34:50;10.53;;;4.10;;
42478;SDS011;28110;47.080;9.476;2022-11-03T09:37:16;7.13;;;2.72;;
42478;SDS011;28110;47.080;9.476;2022-11-03T09:39:41;7.67;;;2.70;;
42478;SDS011;28110;47.080;9.476;2022-11-03T09:42:07;8.05;;;2.65;;
42478;SDS011;28110;47.080;9.476;2022-11-03T09:44:35;7.88;;;3.00;;
42478;SDS011;28110;47.080;9.476;2022-11-03T09:47:02;7.40;;;3.03;;
42478;SDS011;28110;47.080;9.476;2022-11-03T09:49:32;5.03;;;2.15;;
42478;SDS011;28110;47.080;9.476;2022-11-03T09:52:01;8.10;;;2.95;;
42478;SDS011;28110;47.080;9.476;2022-11-03T09:54:28;7.63;;;3.20;;
42478;SDS011;28110;47.080;9.476;2022-11-03T09:56:55;4.93;;;2.87;;
42478;SDS011;28110;47.080;9.476;2022-11-03T09:59:24;6.72;;;3.10;;
42478;SDS011;28110;47.080;9.476;2022-11-03T10:01:50;6.63;;;2.88;;
42478;SDS011;28110;47.080;9.476;2022-11-03T10:04:18;4.63;;;2.43;;
42478;SDS011;28110;47.080;9.476;2022-11-03T10:06:51;5.93;;;2.38;;
42478;SDS011;28110;47.080;9.476;2022-11-03T10:09:18;10.23;;;2.55;;
42478;SDS011;28110;47.080;9.476;2022-11-03T10:11:44;4.40;;;2.85;;
42478;SDS011;28110;47.080;9.476;2022-11-03T10:14:12;8.50;;;2.45;;
42478;SDS011;28110;47.080;9.476;2022-11-03T10:16:40;4.13;;;2.93;;
42478;SDS011;28110;47.080;9.476;2022-11-03T10:19:12;6.88;;;3.10;;
42478;SDS011;28110;47.080;9.476;2022-11-03T10:21:38;7.90;;;3.05;;
42478;SDS011;28110;47.080;9.476;2022-11-03T10:24:09;6.72;;;4.38;;
42478;SDS011;28110;47.080;9.476;2022-11-03T10:26:49;9.30;;;4.25;;
42478;SDS011;28110;47.080;9.476;2022-11-03T10:29:20;16.93;;;4.67;;
42478;SDS011;28110;47.080;9.476;2022-11-03T10:31:50;10.38;;;4.30;;
42478;SDS011;28110;47.080;9.476;2022-11-03T10:34:33;8.38;;;4.55;;
42478;SDS011;28110;47.080;9.476;2022-11-03T10:39:33;47.92;;;6.95;;
42478;SDS011;28110;47.080;9.476;2022-11-03T10:41:59;13.63;;;3.50;;
42478;SDS011;28110;47.080;9.476;2022-11-03T10:44:25;7.23;;;3.80;;
42478;SDS011;28110;47.080;9.476;2022-11-03T10:46:59;9.13;;;4.00;;
42478;SDS011;28110;47.080;9.476;2022-11-03T10:49:32;12.02;;;4.10;;
42478;SDS011;28110;47.080;9.476;2022-11-03T10:54:48;5.43;;;3.10;;
42478;SDS011;28110;47.080;9.476;2022-11-03T10:57:14;28.85;;;4.28;;
42478;SDS011;28110;47.080;9.476;2022-11-03T10:59:41;6.85;;;2.58;;
42478;SDS011;28110;47.080;9.476;2022-11-03T11:02:18;6.95;;;3.25;;
42478;SDS011;28110;47.080;9.476;2022-11-03T11:04:51;9.25;;;3.88;;
42478;SDS011;28110;47.080;9.476;2022-11-03T11:07:23;9.77;;;3.80;;
42478;SDS011;28110;47.080;9.476;2022-11-03T11:09:55;6.78;;;4.88;;
42478;SDS011;28110;47.080;9.476;2022-11-03T11:12:37;5.38;;;3.78;;
42478;SDS011;28110;47.080;9.476;2022-11-03T11:15:05;9.73;;;3.80;;
42478;SDS011;28110;47.080;9.476;2022-11-03T11:18:03;6.38;;;3.97;;
42478;SDS011;28110;47.080;9.476;2022-11-03T11:23:42;10.90;;;4.00;;
42478;SDS011;28110;47.080;9.476;2022-11-03T11:31:00;8.43;;;4.28;;
42478;SDS011;28110;47.080;9.476;2022-11-03T11:33:26;8.03;;;4.70;;
42478;SDS011;28110;47.080;9.476;2022-11-03T11:41:19;8.60;;;5.05;;
42478;SDS011;28110;47.080;9.476;2022-11-03T11:43:45;9.35;;;5.90;;
42478;SDS011;28110;47.080;9.476;2022-11-03T11:46:23;10.88;;;6.07;;
42478;SDS011;28110;47.080;9.476;2022-11-03T11:51:33;9.80;;;6.18;;
42478;SDS011;28110;47.080;9.476;2022-11-03T11:54:03;10.30;;;6.22;;
42478;SDS011;28110;47.080;9.476;2022-11-03T11:56:30;9.25;;;6.93;;
42478;SDS011;28110;47.080;9.476;2022-11-03T11:58:56;11.52;;;6.25;;
42478;SDS011;28110;47.080;9.476;2022-11-03T12:01:25;7.88;;;5.55;;
42478;SDS011;28110;47.080;9.476;2022-11-03T12:03:55;12.75;;;6.72;;
42478;SDS011;28110;47.080;9.476;2022-11-03T12:09:03;12.48;;;6.85;;
42478;SDS011;28110;47.080;9.476;2022-11-03T12:19:41;10.15;;;6.18;;
42478;SDS011;28110;47.080;9.476;2022-11-03T12:22:37;14.68;;;7.65;;
42478;SDS011;28110;47.080;9.476;2022-11-03T12:25:05;13.35;;;7.50;;
42478;SDS011;28110;47.080;9.476;2022-11-03T12:27:50;16.42;;;7.78;;
42478;SDS011;28110;47.080;9.476;2022-11-03T12:30:17;12.33;;;8.33;;
42478;SDS011;28110;47.080;9.476;2022-11-03T12:32:43;12.32;;;8.45;;
42478;SDS011;28110;47.080;9.476;2022-11-03T12:35:10;12.70;;;8.48;;
42478;SDS011;28110;47.080;9.476;2022-11-03T12:37:37;13.25;;;8.00;;
42478;SDS011;28110;47.080;9.476;2022-11-03T12:40:03;14.67;;;8.37;;
42478;SDS011;28110;47.080;9.476;2022-11-03T12:42:29;14.93;;;8.23;;
42478;SDS011;28110;47.080;9.476;2022-11-03T12:44:55;12.37;;;7.90;;
42478;SDS011;28110;47.080;9.476;2022-11-03T12:47:20;14.40;;;8.57;;
42478;SDS011;28110;47.080;9.476;2022-11-03T12:49:46;12.45;;;8.18;;
42478;SDS011;28110;47.080;9.476;2022-11-03T12:52:11;16.90;;;9.07;;
42478;SDS011;28110;47.080;9.476;2022-11-03T12:54:37;14.45;;;8.57;;
42478;SDS011;28110;47.080;9.476;2022-11-03T12:57:03;15.00;;;7.93;;
42478;SDS011;28110;47.080;9.476;2022-11-03T12:59:29;15.02;;;8.30;;
42478;SDS011;28110;47.080;9.476;2022-11-03T13:01:54;16.57;;;8.67;;
42478;SDS011;28110;47.080;9.476;2022-11-03T13:04:20;13.15;;;8.60;;
42478;SDS011;28110;47.080;9.476;2022-11-03T13:06:45;13.97;;;8.40;;
42478;SDS011;28110;47.080;9.476;2022-11-03T13:09:11;13.43;;;8.37;;
42478;SDS011;28110;47.080;9.476;2022-11-03T13:11:37;16.88;;;8.45;;
42478;SDS011;28110;47.080;9.476;2022-11-03T13:14:21;17.13;;;8.63;;
42478;SDS011;28110;47.080;9.476;2022-11-03T13:16:46;14.43;;;8.88;;
42478;SDS011;28110;47.080;9.476;2022-11-03T13:19:12;13.80;;;9.10;;
42478;SDS011;28110;47.080;9.476;2022-11-03T13:21:37;13.90;;;7.83;;
42478;SDS011;28110;47.080;9.476;2022-11-03T13:24:03;13.77;;;7.57;;
42478;SDS011;28110;47.080;9.476;2022-11-03T13:26:29;11.85;;;8.07;;
42478;SDS011;28110;47.080;9.476;2022-11-03T13:28:54;14.35;;;8.88;;
42478;SDS011;28110;47.080;9.476;2022-11-03T13:31:20;14.50;;;8.35;;
42478;SDS011;28110;47.080;9.476;2022-11-03T13:33:45;14.10;;;8.33;;
42478;SDS011;28110;47.080;9.476;2022-11-03T13:36:11;17.38;;;8.88;;
42478;SDS011;28110;47.080;9.476;2022-11-03T13:38:37;22.55;;;9.27;;
42478;SDS011;28110;47.080;9.476;2022-11-03T13:41:02;15.37;;;8.67;;
42478;SDS011;28110;47.080;9.476;2022-11-03T13:43:28;13.73;;;8.17;;
42478;SDS011;28110;47.080;9.476;2022-11-03T13:45:53;12.18;;;8.20;;
42478;SDS011;28110;47.080;9.476;2022-11-03T13:48:22;21.95;;;8.88;;
42478;SDS011;28110;47.080;9.476;2022-11-03T13:50:48;11.65;;;8.27;;
42478;SDS011;28110;47.080;9.476;2022-11-03T13:53:17;14.20;;;8.90;;
42478;SDS011;28110;47.080;9.476;2022-11-03T13:55:43;15.87;;;9.13;;
42478;SDS011;28110;47.080;9.476;2022-11-03T13:58:09;13.32;;;8.75;;
42478;SDS011;28110;47.080;9.476;2022-11-03T14:00:35;18.25;;;9.75;;
42478;SDS011;28110;47.080;9.476;2022-11-03T14:03:01;17.33;;;9.37;;
42478;SDS011;28110;47.080;9.476;2022-11-03T14:05:26;16.13;;;9.32;;
42478;SDS011;28110;47.080;9.476;2022-11-03T14:07:52;25.40;;;10.23;;
42478;SDS011;28110;47.080;9.476;2022-11-03T14:10:17;18.53;;;9.27;;
42478;SDS011;28110;47.080;9.476;2022-11-03T14:12:43;24.10;;;10.80;;
42478;SDS011;28110;47.080;9.476;2022-11-03T14:15:09;18.23;;;8.80;;
42478;SDS011;28110;47.080;9.476;2022-11-03T14:17:36;14.07;;;9.75;;
42478;SDS011;28110;47.080;9.476;2022-11-03T14:20:03;14.88;;;9.13;;
42478;SDS011;28110;47.080;9.476;2022-11-03T14:22:29;19.90;;;11.77;;
42478;SDS011;28110;47.080;9.476;2022-11-03T14:24:54;18.70;;;10.77;;
42478;SDS011;28110;47.080;9.476;2022-11-03T14:27:20;18.33;;;10.40;;
42478;SDS011;28110;47.080;9.476;2022-11-03T14:29:46;20.35;;;12.60;;
42478;SDS011;28110;47.080;9.476;2022-11-03T14:32:13;17.57;;;9.93;;
42478;SDS011;28110;47.080;9.476;2022-11-03T14:34:40;21.40;;;10.77;;
42478;SDS011;28110;47.080;9.476;2022-11-03T14:37:06;27.17;;;14.57;;
42478;SDS011;28110;47.080;9.476;2022-11-03T14:39:35;23.58;;;12.82;;
42478;SDS011;28110;47.080;9.476;2022-11-03T14:42:01;16.73;;;10.43;;
42478;SDS011;28110;47.080;9.476;2022-11-03T14:44:31;18.73;;;10.98;;
42478;SDS011;28110;47.080;9.476;2022-11-03T14:46:58;21.88;;;12.27;;
42478;SDS011;28110;47.080;9.476;2022-11-03T14:49:28;22.50;;;12.70;;
42478;SDS011;28110;47.080;9.476;2022-11-03T14:51:55;16.73;;;10.80;;
42478;SDS011;28110;47.080;9.476;2022-11-03T14:54:21;22.67;;;10.13;;
42478;SDS011;28110;47.080;9.476;2022-11-03T14:56:47;24.75;;;11.38;;
42478;SDS011;28110;47.080;9.476;2022-11-03T14:59:14;18.40;;;9.52;;
42478;SDS011;28110;47.080;9.476;2022-11-03T15:01:39;18.75;;;10.32;;
42478;SDS011;28110;47.080;9.476;2022-11-03T15:04:05;18.90;;;10.13;;
42478;SDS011;28110;47.080;9.476;2022-11-03T15:06:32;19.85;;;9.85;;
42478;SDS011;28110;47.080;9.476;2022-11-03T15:08:58;17.25;;;9.65;;
42478;SDS011;28110;47.080;9.476;2022-11-03T15:11:23;15.15;;;9.52;;
42478;SDS011;28110;47.080;9.476;2022-11-03T15:13:49;16.27;;;9.47;;
42478;SDS011;28110;47.080;9.476;2022-11-03T15:16:15;18.60;;;10.07;;
42478;SDS011;28110;47.080;9.476;2022-11-03T15:18:40;15.40;;;8.98;;
42478;SDS011;28110;47.080;9.476;2022-11-03T15:21:08;11.80;;;6.25;;
42478;SDS011;28110;47.080;9.476;2022-11-03T15:23:33;15.40;;;8.50;;
42478;SDS011;28110;47.080;9.476;2022-11-03T15:25:59;14.27;;;7.97;;
42478;SDS011;28110;47.080;9.476;2022-11-03T15:28:25;7.47;;;5.30;;
42478;SDS011;28110;47.080;9.476;2022-11-03T15:30:51;6.57;;;4.13;;
42478;SDS011;28110;47.080;9.476;2022-11-03T15:33:16;8.00;;;3.37;;
42478;SDS011;28110;47.080;9.476;2022-11-03T15:35:42;7.25;;;4.72;;
42478;SDS011;28110;47.080;9.476;2022-11-03T15:38:08;8.70;;;4.73;;
42478;SDS011;28110;47.080;9.476;2022-11-03T15:40:34;16.92;;;3.70;;
42478;SDS011;28110;47.080;9.476;2022-11-03T15:42:59;3.30;;;1.10;;
42478;SDS011;28110;47.080;9.476;2022-11-03T15:45:25;3.00;;;1.20;;
42478;SDS011;28110;47.080;9.476;2022-11-03T15:47:50;2.08;;;1.17;;
42478;SDS011;28110;47.080;9.476;2022-11-03T15:50:16;2.40;;;1.57;;
42478;SDS011;28110;47.080;9.476;2022-11-03T15:52:41;5.57;;;1.10;;
42478;SDS011;28110;47.080;9.476;2022-11-03T15:55:07;2.33;;;1.63;;